createdAt,value
2023-02-18T00:04:47.084Z,7.30
2023-02-18T00:12:20.930Z,7.24
2023-02-18T00:19:57.152Z,7.24
2023-02-18T00:35:24.041Z,7.10
2023-02-18T00:42:57.957Z,7.01
2023-02-18T00:50:33.189Z,6.96
2023-02-18T00:58:07.137Z,6.89
2023-02-18T01:05:43.709Z,6.83
2023-02-18T01:13:18.279Z,6.73
2023-02-18T01:20:53.615Z,6.72
2023-02-18T01:28:28.098Z,6.68
2023-02-18T01:36:03.740Z,6.65
2023-02-18T01:43:38.806Z,6.62
2023-02-18T01:51:18.378Z,6.59
2023-02-18T01:58:55.879Z,6.58
2023-02-18T02:06:31.496Z,6.55
2023-02-18T02:14:18.350Z,6.52
2023-02-18T02:22:30.838Z,6.48
2023-02-18T02:30:40.590Z,6.51
2023-02-18T02:38:25.480Z,6.50
2023-02-18T02:46:03.743Z,6.48
2023-02-18T02:53:42.714Z,6.46
2023-02-18T03:01:29.011Z,6.47
2023-02-18T03:09:11.108Z,6.41
2023-02-18T03:16:50.290Z,6.39
2023-02-18T03:24:29.656Z,6.37
2023-02-18T03:32:07.976Z,6.34
2023-02-18T03:39:49.963Z,6.34
2023-02-18T03:47:24.730Z,6.33
2023-02-18T03:55:00.138Z,6.30
2023-02-18T04:02:34.762Z,6.26
2023-02-18T04:10:11.258Z,6.21
2023-02-18T04:17:45.442Z,6.19
2023-02-18T04:25:20.953Z,6.13
2023-02-18T04:32:54.768Z,6.11
2023-02-18T04:40:31.154Z,6.09
2023-02-18T04:48:05.813Z,6.11
2023-02-18T04:55:41.090Z,6.17
2023-02-18T05:03:15.264Z,6.25
2023-02-18T05:10:51.367Z,6.29
2023-02-18T05:18:25.547Z,6.34
2023-02-18T05:26:00.935Z,6.36
2023-02-18T05:33:35.017Z,6.42
2023-02-18T05:41:10.744Z,6.44
2023-02-18T05:48:44.688Z,6.44
2023-02-18T05:56:20.128Z,6.47
2023-02-18T06:11:46.714Z,6.48
2023-02-18T06:19:20.743Z,6.54
2023-02-18T06:26:57.206Z,6.57
2023-02-18T06:34:31.147Z,6.60
2023-02-18T06:42:06.725Z,6.63
2023-02-18T06:49:40.877Z,6.72
2023-02-18T06:57:16.210Z,6.79
2023-02-18T07:04:50.338Z,6.89
2023-02-18T07:12:25.831Z,6.97
2023-02-18T07:20:01.185Z,6.97
2023-02-18T07:27:36.447Z,6.92
2023-02-18T07:35:12.236Z,6.85
2023-02-18T07:42:47.426Z,6.74
2023-02-18T07:50:21.572Z,6.67
2023-02-18T07:58:01.172Z,6.60
2023-02-18T08:05:34.969Z,6.52
2023-02-18T08:13:10.570Z,6.48
2023-02-18T08:20:44.475Z,6.45
2023-02-18T08:28:20.337Z,6.42
2023-02-18T08:35:56.522Z,6.42
2023-02-18T08:43:31.886Z,6.47
2023-02-18T08:51:14.184Z,6.48
2023-02-18T08:58:49.477Z,6.51
2023-02-18T09:06:23.467Z,6.51
2023-02-18T09:13:58.960Z,6.54
2023-02-18T09:21:33.285Z,6.52
2023-02-18T09:29:09.849Z,6.52
2023-02-18T09:36:43.751Z,6.55
2023-02-18T09:44:24.301Z,6.59
2023-02-18T09:52:03.199Z,6.63
2023-02-18T09:59:38.690Z,6.62
2023-02-18T10:07:21.042Z,6.66
2023-02-18T10:14:58.666Z,6.68
2023-02-18T10:22:32.649Z,6.69
2023-02-18T10:30:24.508Z,6.72
2023-02-18T10:46:18.200Z,6.80
2023-02-18T10:53:54.389Z,6.81
2023-02-18T11:01:31.725Z,6.84
2023-02-18T11:09:07.338Z,6.88
2023-02-18T11:16:45.044Z,6.91
2023-02-18T11:24:21.622Z,6.95
2023-02-18T11:31:59.489Z,7.00
2023-02-18T11:39:33.547Z,7.09
2023-02-18T11:47:22.684Z,7.17
2023-02-18T11:55:04.526Z,7.26
2023-02-18T12:02:42.958Z,7.38
2023-02-18T12:10:24.410Z,7.62
2023-02-18T12:18:19.802Z,7.84
2023-02-18T12:26:02.928Z,8.19
2023-02-18T12:33:53.031Z,8.75
2023-02-18T12:41:40.504Z,9.05
2023-02-18T12:49:46.634Z,9.34
2023-02-18T12:57:31.075Z,9.61
2023-02-18T13:05:19.845Z,9.72
2023-02-18T13:12:59.292Z,9.84
2023-02-18T13:28:39.532Z,10.12
2023-02-18T13:36:34.537Z,10.17
2023-02-18T13:44:10.371Z,10.22
2023-02-18T13:51:48.924Z,10.24
2023-02-18T13:59:30.584Z,10.20
2023-02-18T14:07:41.666Z,10.19
2023-02-18T14:15:58.177Z,10.14
2023-02-18T14:23:57.667Z,10.10
2023-02-18T14:31:45.624Z,10.08
2023-02-18T14:39:37.388Z,10.10
2023-02-18T14:47:27.336Z,10.08
2023-02-18T14:55:05.511Z,10.03
2023-02-18T15:02:40.566Z,10.02
2023-02-18T15:10:18.893Z,10.02
2023-02-18T15:25:51.688Z,10.05
2023-02-18T15:33:25.793Z,10.04
2023-02-18T15:41:02.715Z,10.00
2023-02-18T15:48:44.974Z,9.95
2023-02-18T15:56:27.358Z,9.99
2023-02-18T16:11:59.483Z,9.95
2023-02-18T16:19:34.130Z,9.89
2023-02-18T16:27:17.375Z,9.84
2023-02-18T16:34:51.301Z,9.86
2023-02-18T16:42:26.883Z,9.84
2023-02-18T16:50:01.088Z,9.90
2023-02-18T16:57:36.435Z,9.91
2023-02-18T17:05:25.817Z,9.87
2023-02-18T17:13:02.037Z,9.80
2023-02-18T17:20:35.936Z,9.68
2023-02-18T17:28:11.268Z,8.88
2023-02-18T17:43:38.441Z,8.35
2023-02-18T17:51:23.249Z,8.11
2023-02-18T17:58:58.640Z,8.03
2023-02-18T18:06:36.138Z,7.99
2023-02-18T18:14:14.725Z,7.90
2023-02-18T18:21:49.154Z,7.80
2023-02-18T18:29:24.439Z,7.77
2023-02-18T18:36:58.314Z,7.72
2023-02-18T18:44:33.516Z,7.63
2023-02-18T18:52:07.480Z,7.54
2023-02-18T18:59:42.821Z,7.54
2023-02-18T19:07:16.717Z,7.53
2023-02-18T19:22:43.669Z,7.52
2023-02-18T19:30:22.976Z,7.49
2023-02-18T19:37:57.467Z,7.45
2023-02-18T19:45:33.012Z,7.40
2023-02-18T19:53:07.043Z,7.24
2023-02-18T20:00:43.816Z,7.20
2023-02-18T20:08:17.922Z,7.12
2023-02-18T20:15:53.308Z,7.14
2023-02-18T20:23:27.227Z,7.13
2023-02-18T20:31:07.406Z,7.13
2023-02-18T20:38:41.506Z,7.12
2023-02-18T20:46:18.945Z,7.11
2023-02-18T20:53:53.069Z,7.04
2023-02-18T21:09:20.057Z,6.89
2023-02-18T21:16:55.184Z,6.79
2023-02-18T21:24:28.982Z,6.63
2023-02-18T21:32:04.477Z,6.58
2023-02-18T21:39:38.687Z,6.58
2023-02-18T21:47:14.189Z,6.62
2023-02-18T21:54:49.040Z,6.67
2023-02-18T22:02:25.669Z,6.61
2023-02-18T22:09:59.635Z,6.62
2023-02-18T22:17:35.110Z,6.56
2023-02-18T22:25:09.667Z,6.59
2023-02-18T22:32:45.053Z,6.62
2023-02-18T22:40:19.221Z,6.56
2023-02-18T22:47:54.647Z,6.54
2023-02-18T22:55:28.924Z,6.55
2023-02-18T23:03:04.254Z,6.54
2023-02-18T23:10:38.241Z,6.55
2023-02-18T23:18:13.526Z,6.53
2023-02-18T23:25:47.404Z,6.47
2023-02-18T23:33:22.880Z,6.43
2023-02-18T23:40:56.770Z,6.37
2023-02-18T23:48:32.094Z,6.33
2023-02-18T23:56:08.430Z,6.34
